sensor_id;sensor_type;location;lat;lon;timestamp;P1;durP1;ratioP1;P2;durP2;ratioP2
21091;SDS011;10704;42.678;23.288;2023-02-28T00:00:22;36.58;;;18.23;;
21091;SDS011;10704;42.678;23.288;2023-02-28T00:02:48;32.50;;;17.25;;
21091;SDS011;10704;42.678;23.288;2023-02-28T00:05:16;33.58;;;16.83;;
21091;SDS011;10704;42.678;23.288;2023-02-28T00:07:43;37.55;;;18.10;;
21091;SDS011;10704;42.678;23.288;2023-02-28T00:10:13;30.63;;;17.42;;
21091;SDS011;10704;42.678;23.288;2023-02-28T00:12:41;28.10;;;17.15;;
21091;SDS011;10704;42.678;23.288;2023-02-28T00:15:08;28.27;;;15.48;;
21091;SDS011;10704;42.678;23.288;2023-02-28T00:17:36;28.42;;;14.63;;
21091;SDS011;10704;42.678;23.288;2023-02-28T00:20:03;25.02;;;12.95;;
21091;SDS011;10704;42.678;23.288;2023-02-28T00:22:35;26.00;;;14.55;;
21091;SDS011;10704;42.678;23.288;2023-02-28T00:25:03;27.00;;;12.70;;
21091;SDS011;10704;42.678;23.288;2023-02-28T00:27:29;25.50;;;13.88;;
21091;SDS011;10704;42.678;23.288;2023-02-28T00:29:55;33.60;;;18.80;;
21091;SDS011;10704;42.678;23.288;2023-02-28T00:32:21;31.73;;;15.23;;
21091;SDS011;10704;42.678;23.288;2023-02-28T00:34:47;28.90;;;15.32;;
21091;SDS011;10704;42.678;23.288;2023-02-28T00:37:13;27.83;;;14.15;;
21091;SDS011;10704;42.678;23.288;2023-02-28T00:39:39;29.90;;;14.60;;
21091;SDS011;10704;42.678;23.288;2023-02-28T00:42:07;25.70;;;14.20;;
21091;SDS011;10704;42.678;23.288;2023-02-28T00:44:33;22.92;;;12.82;;
21091;SDS011;10704;42.678;23.288;2023-02-28T00:46:59;27.02;;;14.05;;
21091;SDS011;10704;42.678;23.288;2023-02-28T00:49:26;22.02;;;12.27;;
21091;SDS011;10704;42.678;23.288;2023-02-28T00:51:52;25.42;;;13.60;;
21091;SDS011;10704;42.678;23.288;2023-02-28T00:54:20;27.63;;;14.63;;
21091;SDS011;10704;42.678;23.288;2023-02-28T00:56:47;23.65;;;13.50;;
21091;SDS011;10704;42.678;23.288;2023-02-28T00:59:13;26.05;;;13.93;;
21091;SDS011;10704;42.678;23.288;2023-02-28T01:01:40;28.40;;;15.82;;
21091;SDS011;10704;42.678;23.288;2023-02-28T01:04:07;29.83;;;17.27;;
21091;SDS011;10704;42.678;23.288;2023-02-28T01:06:34;30.63;;;16.25;;
21091;SDS011;10704;42.678;23.288;2023-02-28T01:09:01;36.22;;;18.95;;
21091;SDS011;10704;42.678;23.288;2023-02-28T01:11:28;35.40;;;18.85;;
21091;SDS011;10704;42.678;23.288;2023-02-28T01:13:53;33.92;;;19.92;;
21091;SDS011;10704;42.678;23.288;2023-02-28T01:16:19;38.33;;;20.55;;
21091;SDS011;10704;42.678;23.288;2023-02-28T01:18:45;36.13;;;20.73;;
21091;SDS011;10704;42.678;23.288;2023-02-28T01:21:12;37.33;;;22.02;;
21091;SDS011;10704;42.678;23.288;2023-02-28T01:23:40;36.70;;;21.27;;
21091;SDS011;10704;42.678;23.288;2023-02-28T01:26:09;41.45;;;22.25;;
21091;SDS011;10704;42.678;23.288;2023-02-28T01:28:38;45.88;;;23.40;;
21091;SDS011;10704;42.678;23.288;2023-02-28T01:31:04;45.00;;;23.05;;
21091;SDS011;10704;42.678;23.288;2023-02-28T01:33:31;43.35;;;23.58;;
21091;SDS011;10704;42.678;23.288;2023-02-28T01:35:59;43.35;;;24.42;;
21091;SDS011;10704;42.678;23.288;2023-02-28T01:38:34;45.85;;;24.30;;
21091;SDS011;10704;42.678;23.288;2023-02-28T01:41:00;45.50;;;25.23;;
21091;SDS011;10704;42.678;23.288;2023-02-28T01:43:28;47.25;;;24.13;;
21091;SDS011;10704;42.678;23.288;2023-02-28T01:45:56;44.00;;;23.30;;
21091;SDS011;10704;42.678;23.288;2023-02-28T01:48:25;43.55;;;22.05;;
21091;SDS011;10704;42.678;23.288;2023-02-28T01:50:55;47.58;;;22.48;;
21091;SDS011;10704;42.678;23.288;2023-02-28T01:53:26;42.28;;;20.02;;
21091;SDS011;10704;42.678;23.288;2023-02-28T01:55:59;38.72;;;19.58;;
21091;SDS011;10704;42.678;23.288;2023-02-28T01:58:27;47.10;;;22.75;;
21091;SDS011;10704;42.678;23.288;2023-02-28T02:00:53;46.00;;;23.23;;
21091;SDS011;10704;42.678;23.288;2023-02-28T02:03:19;51.75;;;23.77;;
21091;SDS011;10704;42.678;23.288;2023-02-28T02:05:46;53.00;;;23.75;;
21091;SDS011;10704;42.678;23.288;2023-02-28T02:08:16;53.17;;;24.95;;
21091;SDS011;10704;42.678;23.288;2023-02-28T02:10:51;55.53;;;26.73;;
21091;SDS011;10704;42.678;23.288;2023-02-28T02:13:22;55.40;;;25.00;;
21091;SDS011;10704;42.678;23.288;2023-02-28T02:16:34;51.85;;;25.15;;
21091;SDS011;10704;42.678;23.288;2023-02-28T02:27:27;57.42;;;25.55;;
21091;SDS011;10704;42.678;23.288;2023-02-28T02:33:10;58.80;;;26.52;;
21091;SDS011;10704;42.678;23.288;2023-02-28T02:35:54;61.13;;;26.15;;
21091;SDS011;10704;42.678;23.288;2023-02-28T02:41:06;60.70;;;27.80;;
21091;SDS011;10704;42.678;23.288;2023-02-28T02:43:35;65.32;;;27.92;;
21091;SDS011;10704;42.678;23.288;2023-02-28T02:46:20;67.55;;;27.92;;
21091;SDS011;10704;42.678;23.288;2023-02-28T02:48:52;76.05;;;29.75;;
21091;SDS011;10704;42.678;23.288;2023-02-28T02:51:21;77.60;;;28.02;;
21091;SDS011;10704;42.678;23.288;2023-02-28T02:53:55;74.57;;;29.45;;
21091;SDS011;10704;42.678;23.288;2023-02-28T02:56:27;67.70;;;27.70;;
21091;SDS011;10704;42.678;23.288;2023-02-28T02:58:57;72.57;;;28.20;;
21091;SDS011;10704;42.678;23.288;2023-02-28T03:01:27;67.20;;;26.23;;
21091;SDS011;10704;42.678;23.288;2023-02-28T03:04:12;70.65;;;28.13;;
21091;SDS011;10704;42.678;23.288;2023-02-28T03:06:42;67.20;;;26.13;;
21091;SDS011;10704;42.678;23.288;2023-02-28T03:09:08;57.50;;;24.83;;
21091;SDS011;10704;42.678;23.288;2023-02-28T03:11:35;54.53;;;25.25;;
21091;SDS011;10704;42.678;23.288;2023-02-28T03:24:43;60.40;;;25.42;;
21091;SDS011;10704;42.678;23.288;2023-02-28T03:27:42;56.40;;;25.60;;
21091;SDS011;10704;42.678;23.288;2023-02-28T03:30:18;53.72;;;23.63;;
21091;SDS011;10704;42.678;23.288;2023-02-28T03:33:26;60.47;;;25.67;;
21091;SDS011;10704;42.678;23.288;2023-02-28T03:35:50;56.88;;;24.65;;
21091;SDS011;10704;42.678;23.288;2023-02-28T03:38:22;59.15;;;25.30;;
21091;SDS011;10704;42.678;23.288;2023-02-28T03:41:20;64.00;;;26.20;;
21091;SDS011;10704;42.678;23.288;2023-02-28T03:43:56;61.63;;;26.65;;
21091;SDS011;10704;42.678;23.288;2023-02-28T03:46:27;58.53;;;26.73;;
21091;SDS011;10704;42.678;23.288;2023-02-28T03:49:40;60.65;;;24.98;;
21091;SDS011;10704;42.678;23.288;2023-02-28T03:51:48;63.47;;;27.88;;
21091;SDS011;10704;42.678;23.288;2023-02-28T03:54:17;61.42;;;25.80;;
21091;SDS011;10704;42.678;23.288;2023-02-28T03:56:56;62.72;;;26.40;;
21091;SDS011;10704;42.678;23.288;2023-02-28T03:59:43;57.90;;;25.35;;
21091;SDS011;10704;42.678;23.288;2023-02-28T04:02:37;56.05;;;26.23;;
21091;SDS011;10704;42.678;23.288;2023-02-28T04:05:04;55.85;;;25.75;;
21091;SDS011;10704;42.678;23.288;2023-02-28T04:07:31;59.42;;;25.23;;
21091;SDS011;10704;42.678;23.288;2023-02-28T04:09:58;63.38;;;25.17;;
21091;SDS011;10704;42.678;23.288;2023-02-28T04:12:24;60.88;;;26.67;;
21091;SDS011;10704;42.678;23.288;2023-02-28T04:14:50;57.53;;;25.20;;
21091;SDS011;10704;42.678;23.288;2023-02-28T04:17:16;61.08;;;24.35;;
21091;SDS011;10704;42.678;23.288;2023-02-28T04:19:42;63.80;;;26.08;;
21091;SDS011;10704;42.678;23.288;2023-02-28T04:22:08;60.83;;;25.98;;
21091;SDS011;10704;42.678;23.288;2023-02-28T04:24:34;62.70;;;26.70;;
21091;SDS011;10704;42.678;23.288;2023-02-28T04:27:01;53.78;;;25.80;;
21091;SDS011;10704;42.678;23.288;2023-02-28T04:29:28;54.50;;;24.27;;
21091;SDS011;10704;42.678;23.288;2023-02-28T04:31:57;47.53;;;22.95;;
21091;SDS011;10704;42.678;23.288;2023-02-28T04:34:25;48.85;;;24.40;;
21091;SDS011;10704;42.678;23.288;2023-02-28T04:36:52;48.40;;;23.10;;
21091;SDS011;10704;42.678;23.288;2023-02-28T04:39:20;42.65;;;22.00;;
21091;SDS011;10704;42.678;23.288;2023-02-28T04:41:50;50.25;;;22.83;;
21091;SDS011;10704;42.678;23.288;2023-02-28T04:44:16;50.30;;;21.90;;
21091;SDS011;10704;42.678;23.288;2023-02-28T04:46:42;48.20;;;22.75;;
21091;SDS011;10704;42.678;23.288;2023-02-28T04:49:12;44.17;;;21.05;;
21091;SDS011;10704;42.678;23.288;2023-02-28T04:51:38;49.67;;;22.83;;
21091;SDS011;10704;42.678;23.288;2023-02-28T04:54:04;50.63;;;23.08;;
21091;SDS011;10704;42.678;23.288;2023-02-28T04:56:30;51.05;;;23.08;;
21091;SDS011;10704;42.678;23.288;2023-02-28T04:58:56;47.83;;;23.17;;
21091;SDS011;10704;42.678;23.288;2023-02-28T05:03:48;46.58;;;22.33;;
21091;SDS011;10704;42.678;23.288;2023-02-28T05:06:15;52.47;;;22.85;;
21091;SDS011;10704;42.678;23.288;2023-02-28T05:08:41;39.95;;;20.30;;
21091;SDS011;10704;42.678;23.288;2023-02-28T05:11:12;48.97;;;22.63;;
21091;SDS011;10704;42.678;23.288;2023-02-28T05:13:40;46.35;;;23.08;;
21091;SDS011;10704;42.678;23.288;2023-02-28T05:16:07;43.33;;;21.50;;
21091;SDS011;10704;42.678;23.288;2023-02-28T05:18:32;49.58;;;21.38;;
21091;SDS011;10704;42.678;23.288;2023-02-28T05:20:59;52.42;;;23.15;;
21091;SDS011;10704;42.678;23.288;2023-02-28T05:23:27;59.03;;;23.95;;
21091;SDS011;10704;42.678;23.288;2023-02-28T05:25:53;60.90;;;22.77;;
21091;SDS011;10704;42.678;23.288;2023-02-28T05:28:20;52.88;;;24.17;;
21091;SDS011;10704;42.678;23.288;2023-02-28T05:30:46;55.85;;;25.30;;
21091;SDS011;10704;42.678;23.288;2023-02-28T05:33:12;55.55;;;24.52;;
21091;SDS011;10704;42.678;23.288;2023-02-28T05:35:39;57.22;;;25.83;;
21091;SDS011;10704;42.678;23.288;2023-02-28T05:38:05;53.95;;;24.45;;
21091;SDS011;10704;42.678;23.288;2023-02-28T05:40:32;62.25;;;26.60;;
21091;SDS011;10704;42.678;23.288;2023-02-28T05:42:57;58.22;;;25.42;;
21091;SDS011;10704;42.678;23.288;2023-02-28T05:45:23;59.40;;;25.42;;
21091;SDS011;10704;42.678;23.288;2023-02-28T05:47:52;56.50;;;23.98;;
21091;SDS011;10704;42.678;23.288;2023-02-28T05:50:19;51.53;;;23.83;;
21091;SDS011;10704;42.678;23.288;2023-02-28T05:52:49;52.38;;;23.38;;
21091;SDS011;10704;42.678;23.288;2023-02-28T05:55:15;48.38;;;23.63;;
21091;SDS011;10704;42.678;23.288;2023-02-28T05:57:41;49.58;;;22.95;;
21091;SDS011;10704;42.678;23.288;2023-02-28T06:00:08;53.63;;;23.75;;
21091;SDS011;10704;42.678;23.288;2023-02-28T06:02:38;48.80;;;24.42;;
21091;SDS011;10704;42.678;23.288;2023-02-28T06:05:05;47.08;;;22.83;;
21091;SDS011;10704;42.678;23.288;2023-02-28T06:07:33;43.75;;;22.95;;
21091;SDS011;10704;42.678;23.288;2023-02-28T06:09:59;53.65;;;25.15;;
21091;SDS011;10704;42.678;23.288;2023-02-28T06:12:25;46.95;;;23.35;;
21091;SDS011;10704;42.678;23.288;2023-02-28T06:14:51;51.05;;;24.80;;
21091;SDS011;10704;42.678;23.288;2023-02-28T06:17:17;56.30;;;24.88;;
21091;SDS011;10704;42.678;23.288;2023-02-28T06:19:43;51.13;;;23.75;;
21091;SDS011;10704;42.678;23.288;2023-02-28T06:22:09;51.70;;;24.63;;
21091;SDS011;10704;42.678;23.288;2023-02-28T06:24:34;48.42;;;24.98;;
21091;SDS011;10704;42.678;23.288;2023-02-28T06:27:00;50.60;;;24.60;;
21091;SDS011;10704;42.678;23.288;2023-02-28T06:29:33;58.03;;;27.30;;
21091;SDS011;10704;42.678;23.288;2023-02-28T06:32:00;49.67;;;24.35;;
21091;SDS011;10704;42.678;23.288;2023-02-28T06:34:26;66.43;;;31.00;;
21091;SDS011;10704;42.678;23.288;2023-02-28T06:36:52;79.25;;;34.38;;
21091;SDS011;10704;42.678;23.288;2023-02-28T06:39:18;74.22;;;32.88;;
21091;SDS011;10704;42.678;23.288;2023-02-28T06:41:44;82.93;;;34.58;;
21091;SDS011;10704;42.678;23.288;2023-02-28T06:44:13;78.60;;;34.03;;
21091;SDS011;10704;42.678;23.288;2023-02-28T06:46:41;68.75;;;32.75;;
21091;SDS011;10704;42.678;23.288;2023-02-28T06:49:07;57.67;;;27.58;;
21091;SDS011;10704;42.678;23.288;2023-02-28T06:51:34;52.42;;;26.05;;
21091;SDS011;10704;42.678;23.288;2023-02-28T06:54:01;50.63;;;25.05;;
21091;SDS011;10704;42.678;23.288;2023-02-28T06:56:28;48.95;;;23.73;;
21091;SDS011;10704;42.678;23.288;2023-02-28T06:58:53;48.60;;;23.33;;
21091;SDS011;10704;42.678;23.288;2023-02-28T07:01:20;46.55;;;23.88;;
21091;SDS011;10704;42.678;23.288;2023-02-28T07:03:47;52.80;;;25.40;;
21091;SDS011;10704;42.678;23.288;2023-02-28T07:06:17;53.50;;;25.17;;
21091;SDS011;10704;42.678;23.288;2023-02-28T07:08:44;47.70;;;24.13;;
21091;SDS011;10704;42.678;23.288;2023-02-28T07:11:10;53.17;;;26.35;;
21091;SDS011;10704;42.678;23.288;2023-02-28T07:13:36;55.35;;;26.08;;
21091;SDS011;10704;42.678;23.288;2023-02-28T07:16:05;60.13;;;27.05;;
21091;SDS011;10704;42.678;23.288;2023-02-28T07:18:34;58.05;;;26.55;;
21091;SDS011;10704;42.678;23.288;2023-02-28T07:21:02;54.20;;;27.85;;
21091;SDS011;10704;42.678;23.288;2023-02-28T07:23:28;55.40;;;27.50;;
21091;SDS011;10704;42.678;23.288;2023-02-28T07:25:54;57.70;;;27.15;;
21091;SDS011;10704;42.678;23.288;2023-02-28T07:28:20;58.75;;;28.70;;
21091;SDS011;10704;42.678;23.288;2023-02-28T07:30:46;54.47;;;26.63;;
21091;SDS011;10704;42.678;23.288;2023-02-28T07:33:13;52.33;;;27.38;;
21091;SDS011;10704;42.678;23.288;2023-02-28T07:35:39;56.15;;;28.38;;
21091;SDS011;10704;42.678;23.288;2023-02-28T07:38:05;51.78;;;25.98;;
21091;SDS011;10704;42.678;23.288;2023-02-28T07:40:33;53.10;;;25.45;;
21091;SDS011;10704;42.678;23.288;2023-02-28T07:43:01;55.13;;;26.15;;
21091;SDS011;10704;42.678;23.288;2023-02-28T07:45:28;53.92;;;26.83;;
21091;SDS011;10704;42.678;23.288;2023-02-28T07:47:55;50.42;;;25.63;;
21091;SDS011;10704;42.678;23.288;2023-02-28T07:50:21;49.45;;;25.50;;
21091;SDS011;10704;42.678;23.288;2023-02-28T07:52:47;47.38;;;25.83;;
21091;SDS011;10704;42.678;23.288;2023-02-28T07:55:13;59.97;;;30.27;;
21091;SDS011;10704;42.678;23.288;2023-02-28T07:57:39;63.05;;;30.60;;
21091;SDS011;10704;42.678;23.288;2023-02-28T08:00:06;59.35;;;28.70;;
21091;SDS011;10704;42.678;23.288;2023-02-28T08:02:39;56.22;;;28.67;;
21091;SDS011;10704;42.678;23.288;2023-02-28T08:05:06;60.70;;;32.03;;
21091;SDS011;10704;42.678;23.288;2023-02-28T08:07:32;67.10;;;35.95;;
21091;SDS011;10704;42.678;23.288;2023-02-28T08:09:58;66.47;;;35.70;;
21091;SDS011;10704;42.678;23.288;2023-02-28T08:12:24;65.43;;;35.13;;
21091;SDS011;10704;42.678;23.288;2023-02-28T08:14:50;63.53;;;32.00;;
21091;SDS011;10704;42.678;23.288;2023-02-28T08:17:29;75.47;;;39.58;;
21091;SDS011;10704;42.678;23.288;2023-02-28T08:19:55;69.38;;;37.63;;
21091;SDS011;10704;42.678;23.288;2023-02-28T08:22:21;77.00;;;37.85;;
21091;SDS011;10704;42.678;23.288;2023-02-28T08:24:47;66.07;;;34.67;;
21091;SDS011;10704;42.678;23.288;2023-02-28T08:27:13;75.05;;;39.63;;
21091;SDS011;10704;42.678;23.288;2023-02-28T08:29:38;77.43;;;39.10;;
21091;SDS011;10704;42.678;23.288;2023-02-28T08:32:05;73.15;;;37.47;;
21091;SDS011;10704;42.678;23.288;2023-02-28T08:34:32;76.55;;;38.45;;
21091;SDS011;10704;42.678;23.288;2023-02-28T08:36:58;79.10;;;39.65;;
21091;SDS011;10704;42.678;23.288;2023-02-28T08:39:24;74.68;;;38.45;;
21091;SDS011;10704;42.678;23.288;2023-02-28T08:41:50;79.43;;;42.17;;
21091;SDS011;10704;42.678;23.288;2023-02-28T08:44:16;80.85;;;41.75;;
21091;SDS011;10704;42.678;23.288;2023-02-28T08:46:42;86.82;;;43.53;;
21091;SDS011;10704;42.678;23.288;2023-02-28T08:49:09;79.72;;;41.25;;
21091;SDS011;10704;42.678;23.288;2023-02-28T08:51:36;101.50;;;46.92;;
21091;SDS011;10704;42.678;23.288;2023-02-28T08:54:03;82.35;;;39.30;;
21091;SDS011;10704;42.678;23.288;2023-02-28T08:56:29;81.00;;;38.40;;
21091;SDS011;10704;42.678;23.288;2023-02-28T08:58:56;84.15;;;38.38;;
21091;SDS011;10704;42.678;23.288;2023-02-28T09:01:23;83.05;;;40.10;;
21091;SDS011;10704;42.678;23.288;2023-02-28T09:03:54;76.68;;;37.15;;
21091;SDS011;10704;42.678;23.288;2023-02-28T09:06:21;77.85;;;37.42;;
21091;SDS011;10704;42.678;23.288;2023-02-28T09:08:49;80.07;;;38.03;;
21091;SDS011;10704;42.678;23.288;2023-02-28T09:11:16;76.43;;;33.47;;
21091;SDS011;10704;42.678;23.288;2023-02-28T09:13:43;69.88;;;33.63;;
21091;SDS011;10704;42.678;23.288;2023-02-28T09:16:11;76.47;;;34.05;;
21091;SDS011;10704;42.678;23.288;2023-02-28T09:18:39;77.20;;;33.08;;
21091;SDS011;10704;42.678;23.288;2023-02-28T09:21:09;71.00;;;32.60;;
21091;SDS011;10704;42.678;23.288;2023-02-28T09:23:41;72.88;;;33.53;;
21091;SDS011;10704;42.678;23.288;2023-02-28T09:26:07;67.20;;;31.92;;
21091;SDS011;10704;42.678;23.288;2023-02-28T09:28:38;77.07;;;32.20;;
21091;SDS011;10704;42.678;23.288;2023-02-28T09:31:04;74.10;;;32.72;;
21091;SDS011;10704;42.678;23.288;2023-02-28T09:33:30;73.40;;;33.28;;
21091;SDS011;10704;42.678;23.288;2023-02-28T09:36:00;69.07;;;34.38;;
21091;SDS011;10704;42.678;23.288;2023-02-28T09:38:27;73.28;;;34.47;;
21091;SDS011;10704;42.678;23.288;2023-02-28T09:40:56;92.38;;;43.28;;
21091;SDS011;10704;42.678;23.288;2023-02-28T09:43:33;82.90;;;42.35;;
21091;SDS011;10704;42.678;23.288;2023-02-28T09:46:05;99.10;;;47.70;;
21091;SDS011;10704;42.678;23.288;2023-02-28T09:48:41;100.25;;;48.70;;
21091;SDS011;10704;42.678;23.288;2023-02-28T09:53:48;102.30;;;49.03;;
21091;SDS011;10704;42.678;23.288;2023-02-28T09:56:19;94.63;;;49.70;;
21091;SDS011;10704;42.678;23.288;2023-02-28T09:58:59;99.35;;;51.55;;
21091;SDS011;10704;42.678;23.288;2023-02-28T10:04:42;97.20;;;49.55;;
21091;SDS011;10704;42.678;23.288;2023-02-28T10:13:13;76.88;;;42.78;;
21091;SDS011;10704;42.678;23.288;2023-02-28T10:22:13;61.33;;;33.92;;
21091;SDS011;10704;42.678;23.288;2023-02-28T10:25:16;58.35;;;30.67;;
21091;SDS011;10704;42.678;23.288;2023-02-28T10:31:32;31.02;;;16.83;;
21091;SDS011;10704;42.678;23.288;2023-02-28T10:33:58;32.20;;;16.40;;
21091;SDS011;10704;42.678;23.288;2023-02-28T10:40:33;29.30;;;14.43;;
21091;SDS011;10704;42.678;23.288;2023-02-28T10:45:39;28.33;;;14.32;;
21091;SDS011;10704;42.678;23.288;2023-02-28T10:56:05;25.90;;;11.45;;
21091;SDS011;10704;42.678;23.288;2023-02-28T11:15:02;30.70;;;12.63;;
21091;SDS011;10704;42.678;23.288;2023-02-28T11:17:54;25.80;;;11.63;;
21091;SDS011;10704;42.678;23.288;2023-02-28T11:24:41;22.85;;;10.95;;
21091;SDS011;10704;42.678;23.288;2023-02-28T11:29:55;26.75;;;10.95;;
21091;SDS011;10704;42.678;23.288;2023-02-28T11:58:00;26.60;;;12.05;;
21091;SDS011;10704;42.678;23.288;2023-02-28T12:28:25;27.42;;;13.50;;
21091;SDS011;10704;42.678;23.288;2023-02-28T12:30:58;25.98;;;12.40;;
21091;SDS011;10704;42.678;23.288;2023-02-28T12:37:22;27.00;;;12.43;;
21091;SDS011;10704;42.678;23.288;2023-02-28T12:39:56;28.90;;;11.93;;
21091;SDS011;10704;42.678;23.288;2023-02-28T12:42:36;29.98;;;13.10;;
21091;SDS011;10704;42.678;23.288;2023-02-28T13:05:15;28.83;;;12.02;;
21091;SDS011;10704;42.678;23.288;2023-02-28T13:08:01;31.98;;;11.98;;
21091;SDS011;10704;42.678;23.288;2023-02-28T13:18:18;28.98;;;12.63;;
21091;SDS011;10704;42.678;23.288;2023-02-28T13:20:55;26.52;;;11.57;;
21091;SDS011;10704;42.678;23.288;2023-02-28T13:23:40;26.42;;;11.82;;
21091;SDS011;10704;42.678;23.288;2023-02-28T13:26:12;27.98;;;12.45;;
21091;SDS011;10704;42.678;23.288;2023-02-28T13:31:18;31.42;;;13.10;;
21091;SDS011;10704;42.678;23.288;2023-02-28T13:34:26;27.50;;;12.60;;
21091;SDS011;10704;42.678;23.288;2023-02-28T13:37:29;25.38;;;11.60;;
21091;SDS011;10704;42.678;23.288;2023-02-28T13:39:48;25.77;;;11.50;;
21091;SDS011;10704;42.678;23.288;2023-02-28T13:45:32;23.17;;;9.82;;
21091;SDS011;10704;42.678;23.288;2023-02-28T13:48:19;26.52;;;10.18;;
21091;SDS011;10704;42.678;23.288;2023-02-28T13:50:50;20.70;;;9.63;;
21091;SDS011;10704;42.678;23.288;2023-02-28T13:56:44;21.80;;;9.52;;
21091;SDS011;10704;42.678;23.288;2023-02-28T14:02:51;30.00;;;10.10;;
21091;SDS011;10704;42.678;23.288;2023-02-28T14:05:38;21.65;;;9.10;;
21091;SDS011;10704;42.678;23.288;2023-02-28T14:08:10;21.77;;;10.30;;
21091;SDS011;10704;42.678;23.288;2023-02-28T14:10:44;22.60;;;9.80;;
21091;SDS011;10704;42.678;23.288;2023-02-28T14:15:59;22.77;;;9.38;;
21091;SDS011;10704;42.678;23.288;2023-02-28T14:18:36;27.10;;;10.05;;
21091;SDS011;10704;42.678;23.288;2023-02-28T14:37:37;31.40;;;12.52;;
21091;SDS011;10704;42.678;23.288;2023-02-28T14:40:11;27.13;;;11.07;;
21091;SDS011;10704;42.678;23.288;2023-02-28T14:42:46;25.25;;;11.10;;
21091;SDS011;10704;42.678;23.288;2023-02-28T14:49:12;22.40;;;10.60;;
21091;SDS011;10704;42.678;23.288;2023-02-28T14:51:47;22.38;;;9.98;;
21091;SDS011;10704;42.678;23.288;2023-02-28T14:54:26;24.08;;;9.98;;
21091;SDS011;10704;42.678;23.288;2023-02-28T14:56:53;33.03;;;10.77;;
21091;SDS011;10704;42.678;23.288;2023-02-28T14:59:24;19.15;;;10.52;;
21091;SDS011;10704;42.678;23.288;2023-02-28T15:01:50;25.45;;;10.55;;
21091;SDS011;10704;42.678;23.288;2023-02-28T15:04:26;21.92;;;10.73;;
21091;SDS011;10704;42.678;23.288;2023-02-28T15:07:10;26.35;;;11.13;;
21091;SDS011;10704;42.678;23.288;2023-02-28T15:13:36;29.00;;;10.80;;
21091;SDS011;10704;42.678;23.288;2023-02-28T15:16:06;24.92;;;10.32;;
21091;SDS011;10704;42.678;23.288;2023-02-28T15:30:17;23.70;;;10.20;;
21091;SDS011;10704;42.678;23.288;2023-02-28T15:35:38;24.85;;;11.20;;
21091;SDS011;10704;42.678;23.288;2023-02-28T15:41:52;24.10;;;10.25;;
21091;SDS011;10704;42.678;23.288;2023-02-28T15:44:35;22.73;;;9.88;;
21091;SDS011;10704;42.678;23.288;2023-02-28T16:04:34;20.25;;;9.73;;
21091;SDS011;10704;42.678;23.288;2023-02-28T16:07:05;16.55;;;9.18;;
21091;SDS011;10704;42.678;23.288;2023-02-28T16:09:37;20.75;;;8.85;;
21091;SDS011;10704;42.678;23.288;2023-02-28T16:12:03;21.52;;;8.85;;
21091;SDS011;10704;42.678;23.288;2023-02-28T16:14:30;19.95;;;9.00;;
21091;SDS011;10704;42.678;23.288;2023-02-28T16:17:02;15.45;;;8.82;;
21091;SDS011;10704;42.678;23.288;2023-02-28T16:19:29;19.55;;;9.25;;
21091;SDS011;10704;42.678;23.288;2023-02-28T16:25:43;19.30;;;9.07;;
21091;SDS011;10704;42.678;23.288;2023-02-28T16:31:28;23.25;;;9.35;;
21091;SDS011;10704;42.678;23.288;2023-02-28T16:33:55;19.30;;;9.40;;
21091;SDS011;10704;42.678;23.288;2023-02-28T16:36:22;17.52;;;8.48;;
21091;SDS011;10704;42.678;23.288;2023-02-28T16:38:51;15.25;;;8.05;;
21091;SDS011;10704;42.678;23.288;2023-02-28T16:41:19;21.00;;;7.82;;
21091;SDS011;10704;42.678;23.288;2023-02-28T16:46:39;16.15;;;7.82;;
21091;SDS011;10704;42.678;23.288;2023-02-28T16:49:08;16.13;;;7.75;;
21091;SDS011;10704;42.678;23.288;2023-02-28T16:55:25;15.45;;;8.32;;
21091;SDS011;10704;42.678;23.288;2023-02-28T16:57:55;14.55;;;7.53;;
21091;SDS011;10704;42.678;23.288;2023-02-28T17:00:23;16.45;;;7.43;;
21091;SDS011;10704;42.678;23.288;2023-02-28T17:02:50;15.43;;;8.43;;
21091;SDS011;10704;42.678;23.288;2023-02-28T17:05:16;17.35;;;7.97;;
21091;SDS011;10704;42.678;23.288;2023-02-28T17:07:44;24.98;;;11.52;;
21091;SDS011;10704;42.678;23.288;2023-02-28T17:10:12;20.50;;;9.10;;
21091;SDS011;10704;42.678;23.288;2023-02-28T17:12:39;17.38;;;7.57;;
21091;SDS011;10704;42.678;23.288;2023-02-28T17:15:05;15.98;;;7.80;;
21091;SDS011;10704;42.678;23.288;2023-02-28T17:17:31;22.88;;;10.95;;
21091;SDS011;10704;42.678;23.288;2023-02-28T17:19:58;22.60;;;8.63;;
21091;SDS011;10704;42.678;23.288;2023-02-28T17:22:23;28.77;;;10.98;;
21091;SDS011;10704;42.678;23.288;2023-02-28T17:31:32;38.17;;;14.45;;
21091;SDS011;10704;42.678;23.288;2023-02-28T17:41:40;14.80;;;5.65;;
21091;SDS011;10704;42.678;23.288;2023-02-28T17:44:07;10.75;;;5.25;;
21091;SDS011;10704;42.678;23.288;2023-02-28T17:46:34;13.18;;;5.63;;
21091;SDS011;10704;42.678;23.288;2023-02-28T17:49:00;8.43;;;4.90;;
21091;SDS011;10704;42.678;23.288;2023-02-28T17:51:26;10.85;;;5.00;;
21091;SDS011;10704;42.678;23.288;2023-02-28T17:53:52;11.43;;;4.45;;
21091;SDS011;10704;42.678;23.288;2023-02-28T17:56:20;11.52;;;5.55;;
21091;SDS011;10704;42.678;23.288;2023-02-28T17:58:48;10.60;;;4.95;;
21091;SDS011;10704;42.678;23.288;2023-02-28T18:04:16;8.85;;;4.78;;
21091;SDS011;10704;42.678;23.288;2023-02-28T18:06:44;13.70;;;5.15;;
21091;SDS011;10704;42.678;23.288;2023-02-28T18:09:16;11.00;;;5.47;;
21091;SDS011;10704;42.678;23.288;2023-02-28T18:14:34;11.57;;;5.60;;
21091;SDS011;10704;42.678;23.288;2023-02-28T18:17:00;9.85;;;4.93;;
21091;SDS011;10704;42.678;23.288;2023-02-28T18:19:26;10.10;;;5.80;;
21091;SDS011;10704;42.678;23.288;2023-02-28T18:21:52;10.10;;;5.30;;
21091;SDS011;10704;42.678;23.288;2023-02-28T18:24:19;9.88;;;5.40;;
21091;SDS011;10704;42.678;23.288;2023-02-28T18:26:47;9.43;;;5.40;;
21091;SDS011;10704;42.678;23.288;2023-02-28T18:29:20;13.55;;;6.28;;
21091;SDS011;10704;42.678;23.288;2023-02-28T18:31:48;10.05;;;5.55;;
21091;SDS011;10704;42.678;23.288;2023-02-28T18:34:15;10.43;;;5.25;;
21091;SDS011;10704;42.678;23.288;2023-02-28T18:36:41;7.88;;;4.63;;
21091;SDS011;10704;42.678;23.288;2023-02-28T18:41:52;10.07;;;4.90;;
21091;SDS011;10704;42.678;23.288;2023-02-28T18:44:18;10.40;;;5.38;;
21091;SDS011;10704;42.678;23.288;2023-02-28T18:46:44;11.25;;;5.55;;
21091;SDS011;10704;42.678;23.288;2023-02-28T18:49:09;10.73;;;5.57;;
21091;SDS011;10704;42.678;23.288;2023-02-28T18:51:35;11.85;;;5.88;;
21091;SDS011;10704;42.678;23.288;2023-02-28T18:54:02;10.02;;;5.88;;
21091;SDS011;10704;42.678;23.288;2023-02-28T18:56:28;10.60;;;5.43;;
21091;SDS011;10704;42.678;23.288;2023-02-28T18:58:54;9.88;;;5.88;;
21091;SDS011;10704;42.678;23.288;2023-02-28T19:01:21;12.00;;;5.72;;
21091;SDS011;10704;42.678;23.288;2023-02-28T19:03:58;13.02;;;5.63;;
21091;SDS011;10704;42.678;23.288;2023-02-28T19:06:25;10.60;;;5.25;;
21091;SDS011;10704;42.678;23.288;2023-02-28T19:08:53;10.80;;;5.80;;